sensor_id;sensor_type;location;lat;lon;timestamp;P1;durP1;ratioP1;P2;durP2;ratioP2
19883;SDS011;10104;50.732;10.174;2024-02-28T00:02:13;24.90;;;12.07;;
19883;SDS011;10104;50.732;10.174;2024-02-28T00:04:53;22.80;;;12.20;;
19883;SDS011;10104;50.732;10.174;2024-02-28T00:07:34;23.30;;;11.90;;
19883;SDS011;10104;50.732;10.174;2024-02-28T00:10:14;22.57;;;10.57;;
19883;SDS011;10104;50.732;10.174;2024-02-28T00:12:55;21.40;;;11.23;;
19883;SDS011;10104;50.732;10.174;2024-02-28T00:15:36;20.23;;;10.43;;
19883;SDS011;10104;50.732;10.174;2024-02-28T00:18:16;19.70;;;9.70;;
19883;SDS011;10104;50.732;10.174;2024-02-28T00:20:56;19.87;;;10.60;;
19883;SDS011;10104;50.732;10.174;2024-02-28T00:23:36;21.13;;;11.00;;
19883;SDS011;10104;50.732;10.174;2024-02-28T00:26:16;22.77;;;10.73;;
19883;SDS011;10104;50.732;10.174;2024-02-28T00:28:56;22.50;;;10.97;;
19883;SDS011;10104;50.732;10.174;2024-02-28T00:31:36;22.23;;;11.40;;
19883;SDS011;10104;50.732;10.174;2024-02-28T00:34:17;22.43;;;10.97;;
19883;SDS011;10104;50.732;10.174;2024-02-28T00:36:57;21.60;;;11.60;;
19883;SDS011;10104;50.732;10.174;2024-02-28T00:39:37;20.73;;;11.20;;
19883;SDS011;10104;50.732;10.174;2024-02-28T00:42:16;21.57;;;11.43;;
19883;SDS011;10104;50.732;10.174;2024-02-28T00:44:57;17.63;;;10.00;;
19883;SDS011;10104;50.732;10.174;2024-02-28T00:47:37;19.10;;;10.90;;
19883;SDS011;10104;50.732;10.174;2024-02-28T00:50:18;19.67;;;10.27;;
19883;SDS011;10104;50.732;10.174;2024-02-28T00:52:58;19.97;;;9.83;;
19883;SDS011;10104;50.732;10.174;2024-02-28T00:55:39;19.07;;;9.83;;
19883;SDS011;10104;50.732;10.174;2024-02-28T00:58:19;19.83;;;11.13;;
19883;SDS011;10104;50.732;10.174;2024-02-28T01:00:59;22.70;;;10.10;;
19883;SDS011;10104;50.732;10.174;2024-02-28T01:03:39;27.30;;;12.13;;
19883;SDS011;10104;50.732;10.174;2024-02-28T01:06:19;21.40;;;11.67;;
19883;SDS011;10104;50.732;10.174;2024-02-28T01:08:59;23.03;;;11.63;;
19883;SDS011;10104;50.732;10.174;2024-02-28T01:11:39;21.10;;;11.63;;
19883;SDS011;10104;50.732;10.174;2024-02-28T01:14:19;25.57;;;12.30;;
19883;SDS011;10104;50.732;10.174;2024-02-28T01:17:00;19.67;;;11.57;;
19883;SDS011;10104;50.732;10.174;2024-02-28T01:19:40;22.53;;;12.13;;
19883;SDS011;10104;50.732;10.174;2024-02-28T01:22:20;24.13;;;12.77;;
19883;SDS011;10104;50.732;10.174;2024-02-28T01:25:00;23.70;;;11.83;;
19883;SDS011;10104;50.732;10.174;2024-02-28T01:27:42;20.47;;;11.67;;
19883;SDS011;10104;50.732;10.174;2024-02-28T01:30:22;25.40;;;12.80;;
19883;SDS011;10104;50.732;10.174;2024-02-28T01:33:03;23.60;;;12.60;;
19883;SDS011;10104;50.732;10.174;2024-02-28T01:35:43;25.00;;;12.23;;
19883;SDS011;10104;50.732;10.174;2024-02-28T01:38:23;25.73;;;13.97;;
19883;SDS011;10104;50.732;10.174;2024-02-28T01:41:04;25.83;;;12.67;;
19883;SDS011;10104;50.732;10.174;2024-02-28T01:43:45;21.23;;;11.37;;
19883;SDS011;10104;50.732;10.174;2024-02-28T01:46:26;26.67;;;13.47;;
19883;SDS011;10104;50.732;10.174;2024-02-28T01:49:07;25.57;;;13.20;;
19883;SDS011;10104;50.732;10.174;2024-02-28T01:51:47;25.33;;;12.73;;
19883;SDS011;10104;50.732;10.174;2024-02-28T01:54:28;27.17;;;13.43;;
19883;SDS011;10104;50.732;10.174;2024-02-28T01:57:10;21.90;;;12.43;;
19883;SDS011;10104;50.732;10.174;2024-02-28T01:59:50;26.50;;;13.37;;
19883;SDS011;10104;50.732;10.174;2024-02-28T02:02:33;26.13;;;13.07;;
19883;SDS011;10104;50.732;10.174;2024-02-28T02:05:13;24.20;;;12.67;;
19883;SDS011;10104;50.732;10.174;2024-02-28T02:07:59;26.37;;;13.13;;
19883;SDS011;10104;50.732;10.174;2024-02-28T02:10:41;24.97;;;13.57;;
19883;SDS011;10104;50.732;10.174;2024-02-28T02:13:21;25.47;;;14.17;;
19883;SDS011;10104;50.732;10.174;2024-02-28T02:16:02;26.30;;;13.63;;
19883;SDS011;10104;50.732;10.174;2024-02-28T02:18:42;24.07;;;12.83;;
19883;SDS011;10104;50.732;10.174;2024-02-28T02:21:23;27.13;;;14.40;;
19883;SDS011;10104;50.732;10.174;2024-02-28T02:24:06;25.20;;;13.30;;
19883;SDS011;10104;50.732;10.174;2024-02-28T02:26:46;25.67;;;14.03;;
19883;SDS011;10104;50.732;10.174;2024-02-28T02:29:27;25.70;;;13.17;;
19883;SDS011;10104;50.732;10.174;2024-02-28T02:32:08;24.87;;;12.53;;
19883;SDS011;10104;50.732;10.174;2024-02-28T02:34:48;28.30;;;14.27;;
19883;SDS011;10104;50.732;10.174;2024-02-28T02:37:28;24.87;;;12.77;;
19883;SDS011;10104;50.732;10.174;2024-02-28T02:40:09;22.67;;;13.07;;
19883;SDS011;10104;50.732;10.174;2024-02-28T02:42:50;24.13;;;13.47;;
19883;SDS011;10104;50.732;10.174;2024-02-28T02:45:30;26.83;;;14.43;;
19883;SDS011;10104;50.732;10.174;2024-02-28T02:48:11;24.20;;;12.80;;
19883;SDS011;10104;50.732;10.174;2024-02-28T02:50:51;26.87;;;14.03;;
19883;SDS011;10104;50.732;10.174;2024-02-28T02:53:31;24.83;;;13.10;;
19883;SDS011;10104;50.732;10.174;2024-02-28T02:56:11;28.13;;;14.70;;
19883;SDS011;10104;50.732;10.174;2024-02-28T02:58:52;25.77;;;13.40;;
19883;SDS011;10104;50.732;10.174;2024-02-28T03:01:33;28.07;;;14.10;;
19883;SDS011;10104;50.732;10.174;2024-02-28T03:04:13;24.57;;;13.13;;
19883;SDS011;10104;50.732;10.174;2024-02-28T03:06:53;26.80;;;13.47;;
19883;SDS011;10104;50.732;10.174;2024-02-28T03:09:34;23.43;;;12.33;;
19883;SDS011;10104;50.732;10.174;2024-02-28T03:12:14;24.93;;;14.67;;
19883;SDS011;10104;50.732;10.174;2024-02-28T03:14:54;27.27;;;14.63;;
19883;SDS011;10104;50.732;10.174;2024-02-28T03:17:34;25.60;;;14.17;;
19883;SDS011;10104;50.732;10.174;2024-02-28T03:20:14;25.73;;;14.30;;
19883;SDS011;10104;50.732;10.174;2024-02-28T03:22:54;26.47;;;14.93;;
19883;SDS011;10104;50.732;10.174;2024-02-28T03:25:35;28.37;;;15.00;;
19883;SDS011;10104;50.732;10.174;2024-02-28T03:28:15;25.83;;;13.70;;
19883;SDS011;10104;50.732;10.174;2024-02-28T03:30:55;21.13;;;13.27;;
19883;SDS011;10104;50.732;10.174;2024-02-28T03:33:35;24.53;;;14.07;;
19883;SDS011;10104;50.732;10.174;2024-02-28T03:36:16;26.17;;;13.70;;
19883;SDS011;10104;50.732;10.174;2024-02-28T03:38:56;28.63;;;13.67;;
19883;SDS011;10104;50.732;10.174;2024-02-28T03:41:36;23.07;;;13.40;;
19883;SDS011;10104;50.732;10.174;2024-02-28T03:44:17;25.60;;;14.03;;
19883;SDS011;10104;50.732;10.174;2024-02-28T03:46:57;26.03;;;13.53;;
19883;SDS011;10104;50.732;10.174;2024-02-28T03:49:37;24.50;;;13.67;;
19883;SDS011;10104;50.732;10.174;2024-02-28T03:52:17;24.23;;;13.50;;
19883;SDS011;10104;50.732;10.174;2024-02-28T03:54:58;25.83;;;14.60;;
19883;SDS011;10104;50.732;10.174;2024-02-28T03:57:38;25.30;;;13.87;;
19883;SDS011;10104;50.732;10.174;2024-02-28T04:00:18;23.23;;;13.03;;
19883;SDS011;10104;50.732;10.174;2024-02-28T04:02:59;28.90;;;14.73;;
19883;SDS011;10104;50.732;10.174;2024-02-28T04:05:39;22.77;;;12.47;;
19883;SDS011;10104;50.732;10.174;2024-02-28T04:08:19;27.03;;;13.37;;
19883;SDS011;10104;50.732;10.174;2024-02-28T04:11:00;23.23;;;12.23;;
19883;SDS011;10104;50.732;10.174;2024-02-28T04:13:40;25.97;;;14.23;;
19883;SDS011;10104;50.732;10.174;2024-02-28T04:16:21;23.67;;;13.33;;
19883;SDS011;10104;50.732;10.174;2024-02-28T04:19:01;24.70;;;13.17;;
19883;SDS011;10104;50.732;10.174;2024-02-28T04:21:41;24.47;;;12.93;;
19883;SDS011;10104;50.732;10.174;2024-02-28T04:24:21;24.40;;;13.00;;
19883;SDS011;10104;50.732;10.174;2024-02-28T04:27:01;24.47;;;12.90;;
19883;SDS011;10104;50.732;10.174;2024-02-28T04:29:44;20.57;;;11.87;;
19883;SDS011;10104;50.732;10.174;2024-02-28T04:32:24;23.43;;;12.70;;
19883;SDS011;10104;50.732;10.174;2024-02-28T04:35:05;21.03;;;12.27;;
19883;SDS011;10104;50.732;10.174;2024-02-28T04:37:46;24.50;;;13.07;;
19883;SDS011;10104;50.732;10.174;2024-02-28T04:40:26;22.90;;;12.63;;
19883;SDS011;10104;50.732;10.174;2024-02-28T04:43:06;24.07;;;13.60;;
19883;SDS011;10104;50.732;10.174;2024-02-28T04:45:46;21.60;;;12.53;;
19883;SDS011;10104;50.732;10.174;2024-02-28T04:48:26;22.10;;;12.37;;
19883;SDS011;10104;50.732;10.174;2024-02-28T04:51:06;25.63;;;12.10;;
19883;SDS011;10104;50.732;10.174;2024-02-28T04:53:46;21.77;;;12.30;;
19883;SDS011;10104;50.732;10.174;2024-02-28T04:56:26;21.47;;;12.07;;
19883;SDS011;10104;50.732;10.174;2024-02-28T04:59:16;28.33;;;14.07;;
19883;SDS011;10104;50.732;10.174;2024-02-28T05:01:56;26.70;;;15.80;;
19883;SDS011;10104;50.732;10.174;2024-02-28T05:04:37;24.57;;;14.37;;
19883;SDS011;10104;50.732;10.174;2024-02-28T05:07:17;24.93;;;13.90;;
19883;SDS011;10104;50.732;10.174;2024-02-28T05:09:57;24.97;;;12.97;;
19883;SDS011;10104;50.732;10.174;2024-02-28T05:12:37;29.07;;;14.47;;
19883;SDS011;10104;50.732;10.174;2024-02-28T05:15:18;24.93;;;11.83;;
19883;SDS011;10104;50.732;10.174;2024-02-28T05:17:59;21.93;;;12.70;;
19883;SDS011;10104;50.732;10.174;2024-02-28T05:20:39;25.50;;;13.60;;
19883;SDS011;10104;50.732;10.174;2024-02-28T05:23:19;22.83;;;12.47;;
19883;SDS011;10104;50.732;10.174;2024-02-28T05:25:59;23.87;;;13.00;;
19883;SDS011;10104;50.732;10.174;2024-02-28T05:28:43;23.50;;;13.80;;
19883;SDS011;10104;50.732;10.174;2024-02-28T05:31:24;27.63;;;14.13;;
19883;SDS011;10104;50.732;10.174;2024-02-28T05:34:05;24.43;;;13.00;;
19883;SDS011;10104;50.732;10.174;2024-02-28T05:36:45;22.10;;;12.27;;
19883;SDS011;10104;50.732;10.174;2024-02-28T05:39:26;20.40;;;11.47;;
19883;SDS011;10104;50.732;10.174;2024-02-28T05:42:09;21.97;;;12.37;;
19883;SDS011;10104;50.732;10.174;2024-02-28T05:44:49;23.97;;;13.17;;
19883;SDS011;10104;50.732;10.174;2024-02-28T05:47:29;21.53;;;12.17;;
19883;SDS011;10104;50.732;10.174;2024-02-28T05:50:11;29.80;;;13.80;;
19883;SDS011;10104;50.732;10.174;2024-02-28T05:52:52;24.27;;;12.80;;
19883;SDS011;10104;50.732;10.174;2024-02-28T05:55:32;28.33;;;15.53;;
19883;SDS011;10104;50.732;10.174;2024-02-28T05:58:13;31.10;;;16.80;;
19883;SDS011;10104;50.732;10.174;2024-02-28T06:00:53;29.63;;;14.83;;
19883;SDS011;10104;50.732;10.174;2024-02-28T06:03:33;23.87;;;13.00;;
19883;SDS011;10104;50.732;10.174;2024-02-28T06:06:14;23.20;;;12.70;;
19883;SDS011;10104;50.732;10.174;2024-02-28T06:08:54;24.13;;;12.57;;
19883;SDS011;10104;50.732;10.174;2024-02-28T06:11:36;25.93;;;13.50;;
19883;SDS011;10104;50.732;10.174;2024-02-28T06:14:16;24.27;;;14.13;;
19883;SDS011;10104;50.732;10.174;2024-02-28T06:16:57;26.70;;;13.67;;
19883;SDS011;10104;50.732;10.174;2024-02-28T06:19:37;30.03;;;13.93;;
19883;SDS011;10104;50.732;10.174;2024-02-28T06:22:18;24.13;;;13.03;;
19883;SDS011;10104;50.732;10.174;2024-02-28T06:24:58;23.00;;;13.00;;
19883;SDS011;10104;50.732;10.174;2024-02-28T06:27:39;23.63;;;13.33;;
19883;SDS011;10104;50.732;10.174;2024-02-28T06:30:19;23.33;;;12.40;;
19883;SDS011;10104;50.732;10.174;2024-02-28T06:32:59;25.13;;;12.57;;
19883;SDS011;10104;50.732;10.174;2024-02-28T06:35:40;28.63;;;13.07;;
19883;SDS011;10104;50.732;10.174;2024-02-28T06:38:20;25.77;;;13.13;;
19883;SDS011;10104;50.732;10.174;2024-02-28T06:41:04;24.93;;;13.50;;
19883;SDS011;10104;50.732;10.174;2024-02-28T06:43:44;27.43;;;14.03;;
19883;SDS011;10104;50.732;10.174;2024-02-28T06:46:26;25.87;;;12.83;;
19883;SDS011;10104;50.732;10.174;2024-02-28T06:49:06;23.67;;;12.87;;
19883;SDS011;10104;50.732;10.174;2024-02-28T06:51:47;24.67;;;12.70;;
19883;SDS011;10104;50.732;10.174;2024-02-28T06:54:30;21.73;;;11.13;;
19883;SDS011;10104;50.732;10.174;2024-02-28T06:57:10;22.80;;;12.00;;
19883;SDS011;10104;50.732;10.174;2024-02-28T06:59:51;21.20;;;12.80;;
19883;SDS011;10104;50.732;10.174;2024-02-28T07:02:31;24.30;;;12.83;;
19883;SDS011;10104;50.732;10.174;2024-02-28T07:05:12;21.93;;;12.27;;
19883;SDS011;10104;50.732;10.174;2024-02-28T07:07:52;21.70;;;11.97;;
19883;SDS011;10104;50.732;10.174;2024-02-28T07:10:33;21.00;;;12.30;;
19883;SDS011;10104;50.732;10.174;2024-02-28T07:13:13;19.87;;;11.67;;
19883;SDS011;10104;50.732;10.174;2024-02-28T07:15:53;21.57;;;12.30;;
19883;SDS011;10104;50.732;10.174;2024-02-28T07:18:37;23.03;;;12.80;;
19883;SDS011;10104;50.732;10.174;2024-02-28T07:21:17;27.73;;;13.67;;
19883;SDS011;10104;50.732;10.174;2024-02-28T07:23:57;25.93;;;14.00;;
19883;SDS011;10104;50.732;10.174;2024-02-28T07:26:37;25.43;;;13.57;;
19883;SDS011;10104;50.732;10.174;2024-02-28T07:29:19;22.23;;;13.30;;
19883;SDS011;10104;50.732;10.174;2024-02-28T07:31:59;21.87;;;13.23;;
19883;SDS011;10104;50.732;10.174;2024-02-28T07:34:41;23.23;;;12.20;;
19883;SDS011;10104;50.732;10.174;2024-02-28T07:37:22;24.20;;;13.17;;
19883;SDS011;10104;50.732;10.174;2024-02-28T07:40:02;24.10;;;12.50;;
19883;SDS011;10104;50.732;10.174;2024-02-28T07:42:42;25.43;;;14.10;;
19883;SDS011;10104;50.732;10.174;2024-02-28T07:45:22;25.60;;;13.30;;
19883;SDS011;10104;50.732;10.174;2024-02-28T07:48:03;23.50;;;12.80;;
19883;SDS011;10104;50.732;10.174;2024-02-28T07:50:44;23.47;;;12.47;;
19883;SDS011;10104;50.732;10.174;2024-02-28T07:53:24;25.97;;;14.20;;
19883;SDS011;10104;50.732;10.174;2024-02-28T07:56:04;23.63;;;13.97;;
19883;SDS011;10104;50.732;10.174;2024-02-28T07:58:44;24.63;;;13.57;;
19883;SDS011;10104;50.732;10.174;2024-02-28T08:01:25;21.80;;;12.77;;
19883;SDS011;10104;50.732;10.174;2024-02-28T08:04:05;22.77;;;12.23;;
19883;SDS011;10104;50.732;10.174;2024-02-28T08:06:46;29.00;;;13.77;;
19883;SDS011;10104;50.732;10.174;2024-02-28T08:09:26;26.33;;;13.30;;
19883;SDS011;10104;50.732;10.174;2024-02-28T08:12:06;23.93;;;13.20;;
19883;SDS011;10104;50.732;10.174;2024-02-28T08:14:46;25.13;;;13.80;;
19883;SDS011;10104;50.732;10.174;2024-02-28T08:17:27;24.93;;;13.63;;
19883;SDS011;10104;50.732;10.174;2024-02-28T08:20:07;26.80;;;14.33;;
19883;SDS011;10104;50.732;10.174;2024-02-28T08:22:48;23.90;;;13.70;;
19883;SDS011;10104;50.732;10.174;2024-02-28T08:25:28;23.47;;;12.63;;
19883;SDS011;10104;50.732;10.174;2024-02-28T08:28:08;26.73;;;12.03;;
19883;SDS011;10104;50.732;10.174;2024-02-28T08:30:49;23.83;;;12.87;;
19883;SDS011;10104;50.732;10.174;2024-02-28T08:33:29;22.97;;;12.60;;
19883;SDS011;10104;50.732;10.174;2024-02-28T08:36:09;23.17;;;12.57;;
19883;SDS011;10104;50.732;10.174;2024-02-28T08:38:49;33.20;;;17.77;;
19883;SDS011;10104;50.732;10.174;2024-02-28T08:41:33;34.60;;;18.20;;
19883;SDS011;10104;50.732;10.174;2024-02-28T08:44:13;27.80;;;14.50;;
19883;SDS011;10104;50.732;10.174;2024-02-28T08:46:54;25.63;;;13.73;;
19883;SDS011;10104;50.732;10.174;2024-02-28T08:49:34;22.80;;;13.00;;
19883;SDS011;10104;50.732;10.174;2024-02-28T08:52:15;28.80;;;14.20;;
19883;SDS011;10104;50.732;10.174;2024-02-28T08:54:55;22.53;;;12.63;;
19883;SDS011;10104;50.732;10.174;2024-02-28T08:57:35;21.90;;;11.80;;
19883;SDS011;10104;50.732;10.174;2024-02-28T09:00:16;19.17;;;11.63;;
19883;SDS011;10104;50.732;10.174;2024-02-28T09:02:57;22.33;;;12.67;;
19883;SDS011;10104;50.732;10.174;2024-02-28T09:05:37;22.17;;;11.97;;
19883;SDS011;10104;50.732;10.174;2024-02-28T09:08:18;18.87;;;11.70;;
19883;SDS011;10104;50.732;10.174;2024-02-28T09:10:58;22.17;;;12.53;;
19883;SDS011;10104;50.732;10.174;2024-02-28T09:13:39;24.33;;;13.13;;
19883;SDS011;10104;50.732;10.174;2024-02-28T09:16:18;22.73;;;13.20;;
19883;SDS011;10104;50.732;10.174;2024-02-28T09:18:59;21.53;;;12.87;;
19883;SDS011;10104;50.732;10.174;2024-02-28T09:21:39;23.27;;;13.93;;
19883;SDS011;10104;50.732;10.174;2024-02-28T09:24:19;23.03;;;12.83;;
19883;SDS011;10104;50.732;10.174;2024-02-28T09:27:00;22.57;;;12.87;;
19883;SDS011;10104;50.732;10.174;2024-02-28T09:29:40;21.60;;;12.50;;
19883;SDS011;10104;50.732;10.174;2024-02-28T09:32:20;26.77;;;14.30;;
19883;SDS011;10104;50.732;10.174;2024-02-28T09:35:02;24.67;;;14.03;;
19883;SDS011;10104;50.732;10.174;2024-02-28T09:37:43;19.60;;;11.30;;
19883;SDS011;10104;50.732;10.174;2024-02-28T09:40:23;20.90;;;11.73;;
19883;SDS011;10104;50.732;10.174;2024-02-28T09:43:04;20.53;;;12.10;;
19883;SDS011;10104;50.732;10.174;2024-02-28T09:45:44;22.40;;;12.27;;
19883;SDS011;10104;50.732;10.174;2024-02-28T09:48:28;22.47;;;12.67;;
19883;SDS011;10104;50.732;10.174;2024-02-28T09:51:09;24.77;;;13.03;;
19883;SDS011;10104;50.732;10.174;2024-02-28T09:53:51;22.67;;;12.73;;
19883;SDS011;10104;50.732;10.174;2024-02-28T09:56:32;26.07;;;13.00;;
19883;SDS011;10104;50.732;10.174;2024-02-28T09:59:13;22.00;;;11.87;;
19883;SDS011;10104;50.732;10.174;2024-02-28T10:01:55;19.40;;;11.57;;
19883;SDS011;10104;50.732;10.174;2024-02-28T10:04:40;20.63;;;11.50;;
19883;SDS011;10104;50.732;10.174;2024-02-28T10:07:20;19.93;;;11.47;;
19883;SDS011;10104;50.732;10.174;2024-02-28T10:10:02;21.63;;;11.70;;
19883;SDS011;10104;50.732;10.174;2024-02-28T10:12:44;20.00;;;11.50;;
19883;SDS011;10104;50.732;10.174;2024-02-28T10:15:27;19.73;;;12.00;;
19883;SDS011;10104;50.732;10.174;2024-02-28T10:18:07;21.77;;;12.90;;
19883;SDS011;10104;50.732;10.174;2024-02-28T10:20:47;21.60;;;11.57;;
19883;SDS011;10104;50.732;10.174;2024-02-28T10:23:28;20.90;;;11.57;;
19883;SDS011;10104;50.732;10.174;2024-02-28T10:26:09;20.47;;;11.77;;
19883;SDS011;10104;50.732;10.174;2024-02-28T10:28:50;16.70;;;9.83;;
19883;SDS011;10104;50.732;10.174;2024-02-28T10:31:32;17.57;;;10.53;;
19883;SDS011;10104;50.732;10.174;2024-02-28T10:34:12;19.43;;;10.87;;
19883;SDS011;10104;50.732;10.174;2024-02-28T10:36:54;18.80;;;11.10;;
19883;SDS011;10104;50.732;10.174;2024-02-28T10:39:36;16.90;;;10.57;;
19883;SDS011;10104;50.732;10.174;2024-02-28T10:42:18;17.30;;;8.97;;
19883;SDS011;10104;50.732;10.174;2024-02-28T10:45:02;14.50;;;9.23;;
19883;SDS011;10104;50.732;10.174;2024-02-28T10:47:59;18.30;;;10.77;;
19883;SDS011;10104;50.732;10.174;2024-02-28T10:50:40;16.17;;;10.30;;
19883;SDS011;10104;50.732;10.174;2024-02-28T10:53:22;18.63;;;10.73;;
19883;SDS011;10104;50.732;10.174;2024-02-28T10:56:12;20.37;;;11.43;;
19883;SDS011;10104;50.732;10.174;2024-02-28T10:58:55;14.50;;;8.23;;
19883;SDS011;10104;50.732;10.174;2024-02-28T11:01:41;15.77;;;8.77;;
19883;SDS011;10104;50.732;10.174;2024-02-28T11:04:23;13.37;;;8.10;;
19883;SDS011;10104;50.732;10.174;2024-02-28T11:07:05;12.40;;;7.23;;
19883;SDS011;10104;50.732;10.174;2024-02-28T11:09:45;12.13;;;7.10;;
19883;SDS011;10104;50.732;10.174;2024-02-28T11:12:27;12.00;;;6.97;;
19883;SDS011;10104;50.732;10.174;2024-02-28T11:15:15;9.90;;;6.00;;
19883;SDS011;10104;50.732;10.174;2024-02-28T11:18:06;11.43;;;6.57;;
19883;SDS011;10104;50.732;10.174;2024-02-28T11:20:49;10.53;;;6.93;;
19883;SDS011;10104;50.732;10.174;2024-02-28T11:23:39;13.37;;;7.17;;
19883;SDS011;10104;50.732;10.174;2024-02-28T11:26:19;10.37;;;6.60;;
19883;SDS011;10104;50.732;10.174;2024-02-28T11:29:01;10.77;;;6.60;;
19883;SDS011;10104;50.732;10.174;2024-02-28T11:31:42;7.70;;;4.90;;
19883;SDS011;10104;50.732;10.174;2024-02-28T11:34:22;8.57;;;5.77;;
19883;SDS011;10104;50.732;10.174;2024-02-28T11:37:02;9.83;;;6.43;;
19883;SDS011;10104;50.732;10.174;2024-02-28T11:39:47;9.47;;;5.63;;
19883;SDS011;10104;50.732;10.174;2024-02-28T11:42:27;7.80;;;5.30;;
19883;SDS011;10104;50.732;10.174;2024-02-28T11:45:11;9.37;;;5.30;;
19883;SDS011;10104;50.732;10.174;2024-02-28T11:47:51;7.67;;;5.33;;
19883;SDS011;10104;50.732;10.174;2024-02-28T11:50:32;8.40;;;5.30;;
19883;SDS011;10104;50.732;10.174;2024-02-28T11:53:12;7.90;;;5.20;;
19883;SDS011;10104;50.732;10.174;2024-02-28T11:55:53;8.57;;;5.20;;
19883;SDS011;10104;50.732;10.174;2024-02-28T11:58:33;7.70;;;5.00;;
19883;SDS011;10104;50.732;10.174;2024-02-28T12:01:13;9.33;;;5.27;;
19883;SDS011;10104;50.732;10.174;2024-02-28T12:03:54;11.77;;;5.77;;
19883;SDS011;10104;50.732;10.174;2024-02-28T12:06:34;9.67;;;5.43;;
19883;SDS011;10104;50.732;10.174;2024-02-28T12:09:16;11.13;;;6.00;;
19883;SDS011;10104;50.732;10.174;2024-02-28T12:12:07;9.80;;;5.80;;
19883;SDS011;10104;50.732;10.174;2024-02-28T12:14:48;10.07;;;6.03;;
19883;SDS011;10104;50.732;10.174;2024-02-28T12:17:28;8.60;;;5.73;;
19883;SDS011;10104;50.732;10.174;2024-02-28T12:20:08;10.57;;;6.03;;
19883;SDS011;10104;50.732;10.174;2024-02-28T12:22:49;9.67;;;6.20;;
19883;SDS011;10104;50.732;10.174;2024-02-28T12:25:29;8.23;;;5.60;;
19883;SDS011;10104;50.732;10.174;2024-02-28T12:28:10;8.90;;;5.57;;
19883;SDS011;10104;50.732;10.174;2024-02-28T12:30:51;11.47;;;5.70;;
19883;SDS011;10104;50.732;10.174;2024-02-28T12:33:34;10.50;;;5.70;;
19883;SDS011;10104;50.732;10.174;2024-02-28T12:36:14;12.17;;;6.27;;
19883;SDS011;10104;50.732;10.174;2024-02-28T12:38:54;7.97;;;5.30;;
19883;SDS011;10104;50.732;10.174;2024-02-28T12:41:34;8.90;;;5.07;;
19883;SDS011;10104;50.732;10.174;2024-02-28T12:44:16;8.23;;;5.10;;
19883;SDS011;10104;50.732;10.174;2024-02-28T12:46:57;10.67;;;5.70;;
19883;SDS011;10104;50.732;10.174;2024-02-28T12:49:37;6.33;;;4.50;;
19883;SDS011;10104;50.732;10.174;2024-02-28T12:52:17;8.77;;;4.73;;
19883;SDS011;10104;50.732;10.174;2024-02-28T12:54:57;11.87;;;4.90;;
19883;SDS011;10104;50.732;10.174;2024-02-28T12:57:37;7.27;;;4.40;;
19883;SDS011;10104;50.732;10.174;2024-02-28T13:00:18;6.70;;;4.67;;
19883;SDS011;10104;50.732;10.174;2024-02-28T13:02:58;7.00;;;4.30;;
19883;SDS011;10104;50.732;10.174;2024-02-28T13:05:39;6.53;;;4.33;;
19883;SDS011;10104;50.732;10.174;2024-02-28T13:08:19;7.43;;;4.50;;
19883;SDS011;10104;50.732;10.174;2024-02-28T13:10:59;6.60;;;4.10;;
19883;SDS011;10104;50.732;10.174;2024-02-28T13:13:39;6.87;;;4.13;;
19883;SDS011;10104;50.732;10.174;2024-02-28T13:16:20;5.40;;;3.60;;
19883;SDS011;10104;50.732;10.174;2024-02-28T13:19:01;7.53;;;4.60;;
19883;SDS011;10104;50.732;10.174;2024-02-28T13:21:42;6.47;;;3.90;;
19883;SDS011;10104;50.732;10.174;2024-02-28T13:24:23;6.47;;;4.33;;
19883;SDS011;10104;50.732;10.174;2024-02-28T13:27:03;8.03;;;4.50;;
19883;SDS011;10104;50.732;10.174;2024-02-28T13:29:43;5.93;;;4.00;;
19883;SDS011;10104;50.732;10.174;2024-02-28T13:32:23;7.60;;;4.93;;
19883;SDS011;10104;50.732;10.174;2024-02-28T13:35:04;7.63;;;4.90;;
19883;SDS011;10104;50.732;10.174;2024-02-28T13:37:44;7.57;;;4.20;;
19883;SDS011;10104;50.732;10.174;2024-02-28T13:40:24;6.30;;;4.43;;
19883;SDS011;10104;50.732;10.174;2024-02-28T13:43:04;6.47;;;3.87;;
19883;SDS011;10104;50.732;10.174;2024-02-28T13:45:48;7.40;;;4.80;;
19883;SDS011;10104;50.732;10.174;2024-02-28T13:48:30;12.20;;;7.07;;
19883;SDS011;10104;50.732;10.174;2024-02-28T13:51:13;8.27;;;4.80;;
19883;SDS011;10104;50.732;10.174;2024-02-28T13:53:55;7.07;;;4.50;;
19883;SDS011;10104;50.732;10.174;2024-02-28T13:56:35;9.27;;;6.30;;
19883;SDS011;10104;50.732;10.174;2024-02-28T13:59:15;8.53;;;5.20;;
19883;SDS011;10104;50.732;10.174;2024-02-28T14:01:55;7.33;;;4.50;;
19883;SDS011;10104;50.732;10.174;2024-02-28T14:04:36;7.80;;;4.70;;
19883;SDS011;10104;50.732;10.174;2024-02-28T14:07:16;8.60;;;4.87;;
19883;SDS011;10104;50.732;10.174;2024-02-28T14:09:56;6.47;;;4.40;;
19883;SDS011;10104;50.732;10.174;2024-02-28T14:12:37;6.03;;;4.17;;
19883;SDS011;10104;50.732;10.174;2024-02-28T14:15:18;6.90;;;4.63;;
19883;SDS011;10104;50.732;10.174;2024-02-28T14:17:59;6.47;;;4.73;;
19883;SDS011;10104;50.732;10.174;2024-02-28T14:20:40;7.27;;;4.40;;
19883;SDS011;10104;50.732;10.174;2024-02-28T14:23:20;6.93;;;4.57;;
19883;SDS011;10104;50.732;10.174;2024-02-28T14:26:00;6.03;;;4.33;;
19883;SDS011;10104;50.732;10.174;2024-02-28T14:28:42;7.00;;;4.57;;
19883;SDS011;10104;50.732;10.174;2024-02-28T14:31:22;7.23;;;4.80;;
19883;SDS011;10104;50.732;10.174;2024-02-28T14:34:03;5.57;;;3.97;;
19883;SDS011;10104;50.732;10.174;2024-02-28T14:36:45;7.70;;;4.50;;
19883;SDS011;10104;50.732;10.174;2024-02-28T14:39:25;7.10;;;4.50;;
19883;SDS011;10104;50.732;10.174;2024-02-28T14:42:05;7.40;;;4.50;;
19883;SDS011;10104;50.732;10.174;2024-02-28T14:44:48;7.40;;;4.47;;
19883;SDS011;10104;50.732;10.174;2024-02-28T14:47:28;5.77;;;3.93;;
19883;SDS011;10104;50.732;10.174;2024-02-28T14:50:09;5.57;;;3.63;;
19883;SDS011;10104;50.732;10.174;2024-02-28T14:52:50;6.17;;;4.07;;
19883;SDS011;10104;50.732;10.174;2024-02-28T14:55:30;6.07;;;4.03;;
19883;SDS011;10104;50.732;10.174;2024-02-28T14:58:10;5.83;;;3.70;;
19883;SDS011;10104;50.732;10.174;2024-02-28T15:00:51;5.63;;;3.60;;
19883;SDS011;10104;50.732;10.174;2024-02-28T15:03:31;6.60;;;3.73;;
19883;SDS011;10104;50.732;10.174;2024-02-28T15:06:11;8.67;;;4.00;;
19883;SDS011;10104;50.732;10.174;2024-02-28T15:08:51;8.03;;;4.73;;
19883;SDS011;10104;50.732;10.174;2024-02-28T15:11:31;7.47;;;4.23;;
19883;SDS011;10104;50.732;10.174;2024-02-28T15:14:11;5.97;;;4.07;;
19883;SDS011;10104;50.732;10.174;2024-02-28T15:16:52;7.33;;;4.13;;
19883;SDS011;10104;50.732;10.174;2024-02-28T15:19:32;5.63;;;3.80;;
19883;SDS011;10104;50.732;10.174;2024-02-28T15:22:12;6.03;;;3.80;;
19883;SDS011;10104;50.732;10.174;2024-02-28T15:24:52;6.33;;;4.17;;
19883;SDS011;10104;50.732;10.174;2024-02-28T15:27:32;5.10;;;3.27;;
19883;SDS011;10104;50.732;10.174;2024-02-28T15:30:12;6.00;;;3.73;;
19883;SDS011;10104;50.732;10.174;2024-02-28T15:32:53;5.93;;;3.87;;
19883;SDS011;10104;50.732;10.174;2024-02-28T15:35:33;6.57;;;3.70;;